Time;durP1;ratioP1;P1;durP2;ratioP2;P2;SDS_P1;SDS_P2;PMS_P1;PMS_P2;Temp;Humidity;BMP_temperature;BMP_pressure;BME280_temperature;BME280_humidity;BME280_pressure;Samples;Min_cycle;Max_cycle;Signal;HPM_P1;HPM_P2
2022/03/08 00:00:40;;;;;;;;;;;0.20;99.90;;;;;;5099855;28;20356;-74
2022/03/08 00:03:05;;;;;;;;;;;0.40;99.90;;;;;;5112368;28;19912;-74
2022/03/08 00:05:31;;;;;;;;;;;0.40;99.90;;;;;;5112254;28;20251;-74
2022/03/08 00:07:57;;;;;;;;;;;0.50;99.90;;;;;;5112520;28;19916;-73
2022/03/08 00:10:23;;;;;;;;;;;0.50;99.90;;;;;;5094175;28;19951;-74
2022/03/08 00:12:48;;;;;;;;;;;0.50;99.90;;;;;;5111696;28;20018;-74
2022/03/08 00:15:23;;;;;;;;;;;0.50;99.90;;;;;;5112022;28;19926;-74
2022/03/08 00:17:49;;;;;;;;;;;0.50;99.90;;;;;;5094169;28;19923;-74
2022/03/08 00:20:15;;;;;;;;;;;0.50;99.90;;;;;;5111880;28;19912;-74
2022/03/08 00:22:41;;;;;;;;;;;0.50;99.90;;;;;;5112198;28;20006;-74
2022/03/08 00:25:07;;;;;;;;;;;0.50;99.90;;;;;;5093329;28;19918;-74
2022/03/08 00:27:33;;;;;;;;;;;0.40;99.90;;;;;;5093627;28;19912;-73
2022/03/08 00:29:58;;;;;;;;;;;0.30;99.90;;;;;;5077125;28;20386;-74
2022/03/08 00:32:24;;;;;;;;;;;0.20;99.90;;;;;;5093147;28;20038;-74
2022/03/08 00:34:50;;;;;;;;;;;0.20;99.90;;;;;;5114162;27;20423;-74
2022/03/08 00:37:16;;;;;;;;;;;0.20;99.90;;;;;;5113886;27;19915;-73
2022/03/08 00:39:41;;;;;;;;;;;0.20;99.90;;;;;;5130211;27;19921;-73
2022/03/08 00:42:11;;;;;;;;;;;0.20;99.90;;;;;;5111875;28;19960;-73
2022/03/08 00:44:46;;;;;;;;;;;0.20;99.90;;;;;;5092981;28;19958;-73
2022/03/08 00:47:12;;;;;;;;;;;0.20;99.90;;;;;;5111797;28;19916;-73
2022/03/08 00:49:38;;;;;;;;;;;0.10;99.90;;;;;;5092815;28;19916;-73
2022/03/08 00:52:04;;;;;;;;;;;0.10;99.90;;;;;;5092716;28;19958;-74
2022/03/08 00:54:29;;;;;;;;;;;0.10;99.90;;;;;;5111212;28;19955;-74
2022/03/08 00:56:55;;;;;;;;;;;0.10;99.90;;;;;;5112045;28;19958;-73
2022/03/08 00:59:21;;;;;;;;;;;0.10;99.90;;;;;;5116571;27;19911;-73
2022/03/08 01:01:46;;;;;;;;;;;0.10;99.90;;;;;;5112482;27;20120;-73
2022/03/08 01:04:12;;;;;;;;;;;0.10;99.90;;;;;;5110907;28;20280;-73
2022/03/08 01:06:40;;;;;;;;;;;0.10;99.90;;;;;;5111171;28;20351;-74
2022/03/08 01:09:05;;;;;;;;;;;0.10;99.90;;;;;;5111649;28;20406;-73
2022/03/08 01:11:32;;;;;;;;;;;0.10;99.90;;;;;;5111068;28;19955;-72
2022/03/08 01:13:58;;;;;;;;;;;0.10;99.90;;;;;;5094055;28;19980;-72
2022/03/08 01:16:24;;;;;;;;;;;0.10;99.90;;;;;;5116151;27;20290;-73
2022/03/08 01:18:50;;;;;;;;;;;0.10;99.90;;;;;;5138878;27;19918;-74
2022/03/08 01:21:16;;;;;;;;;;;0.10;99.90;;;;;;5119555;27;20048;-75
2022/03/08 01:23:42;;;;;;;;;;;0.10;99.90;;;;;;5138566;27;20388;-75
2022/03/08 01:26:08;;;;;;;;;;;0.10;99.90;;;;;;5106171;28;19915;-73
2022/03/08 01:28:34;;;;;;;;;;;0.10;99.90;;;;;;5118256;28;19919;-73
2022/03/08 01:31:00;;;;;;;;;;;0.00;99.90;;;;;;5130588;27;19908;-73
2022/03/08 01:33:25;;;;;;;;;;;0.10;99.90;;;;;;5138268;27;19918;-74
2022/03/08 01:35:51;;;;;;;;;;;0.10;99.90;;;;;;5138030;27;20119;-74
2022/03/08 01:38:17;;;;;;;;;;;0.10;99.90;;;;;;5138494;27;20082;-73
2022/03/08 01:40:43;;;;;;;;;;;0.10;99.90;;;;;;5147127;27;19955;-72
2022/03/08 01:43:08;;;;;;;;;;;0.10;99.90;;;;;;5119909;27;19955;-73
2022/03/08 01:45:34;;;;;;;;;;;0.20;99.90;;;;;;5137846;27;19911;-73
2022/03/08 01:48:00;;;;;;;;;;;0.10;99.90;;;;;;5138944;27;19954;-72
2022/03/08 01:50:25;;;;;;;;;;;0.10;99.90;;;;;;5111706;28;19912;-72
2022/03/08 01:52:51;;;;;;;;;;;0.10;99.90;;;;;;5098928;28;19942;-72
2022/03/08 01:55:17;;;;;;;;;;;0.10;99.90;;;;;;5117551;28;19922;-74
2022/03/08 01:57:45;;;;;;;;;;;0.10;99.90;;;;;;5118055;28;19916;-74
2022/03/08 02:00:13;;;;;;;;;;;0.00;99.90;;;;;;5122873;27;23084;-73
2022/03/08 02:02:40;;;;;;;;;;;0.00;99.90;;;;;;5099357;28;20406;-73
2022/03/08 02:05:06;;;;;;;;;;;0.00;99.90;;;;;;5117125;28;19915;-74
2022/03/08 02:07:32;;;;;;;;;;;0.00;99.90;;;;;;5117794;28;20331;-74
2022/03/08 02:09:58;;;;;;;;;;;0.00;99.90;;;;;;5117272;28;20042;-73
2022/03/08 02:12:23;;;;;;;;;;;0.00;99.90;;;;;;5099161;28;19926;-73
2022/03/08 02:14:49;;;;;;;;;;;0.00;99.90;;;;;;5098730;28;19920;-73
2022/03/08 02:17:15;;;;;;;;;;;0.00;99.90;;;;;;5099215;28;19916;-73
2022/03/08 02:19:40;;;;;;;;;;;0.00;99.90;;;;;;5117334;28;19915;-74
2022/03/08 02:22:06;;;;;;;;;;;0.00;99.90;;;;;;5098955;28;19935;-72
2022/03/08 02:24:32;;;;;;;;;;;0.10;99.90;;;;;;5117256;28;20006;-72
2022/03/08 02:26:58;;;;;;;;;;;0.10;99.90;;;;;;5113574;28;19912;-74
2022/03/08 02:29:24;;;;;;;;;;;0.10;99.90;;;;;;5114427;28;20270;-74
2022/03/08 02:31:49;;;;;;;;;;;0.10;99.90;;;;;;5114262;28;20331;-74
2022/03/08 02:34:15;;;;;;;;;;;0.10;99.90;;;;;;5114261;28;19957;-73
2022/03/08 02:36:54;;;;;;;;;;;0.10;99.90;;;;;;5113589;28;19912;-74
2022/03/08 02:39:20;;;;;;;;;;;0.10;99.90;;;;;;5095833;28;19919;-73
2022/03/08 02:41:45;;;;;;;;;;;0.00;99.90;;;;;;5113707;28;19912;-73
2022/03/08 02:44:11;;;;;;;;;;;0.00;99.90;;;;;;5095606;28;19938;-73
2022/03/08 02:46:37;;;;;;;;;;;0.00;99.90;;;;;;5113654;28;19912;-73
2022/03/08 02:49:02;;;;;;;;;;;0.00;99.90;;;;;;5095853;28;20381;-73
2022/03/08 02:51:28;;;;;;;;;;;-0.10;99.90;;;;;;5094785;28;20010;-74
2022/03/08 02:53:53;;;;;;;;;;;0.00;99.90;;;;;;5113722;28;19911;-73
2022/03/08 02:56:21;;;;;;;;;;;-0.10;99.90;;;;;;5094741;28;20359;-73
2022/03/08 02:58:47;;;;;;;;;;;-0.10;99.90;;;;;;5113539;28;19912;-73
2022/03/08 03:01:12;;;;;;;;;;;-0.10;99.90;;;;;;5127662;27;19950;-73
2022/03/08 03:03:38;;;;;;;;;;;-0.10;99.90;;;;;;5133999;27;19922;-73
2022/03/08 03:06:03;;;;;;;;;;;0.00;99.90;;;;;;5120286;27;19916;-74
2022/03/08 03:08:29;;;;;;;;;;;-0.10;99.90;;;;;;5113448;28;19923;-73
2022/03/08 03:10:55;;;;;;;;;;;0.00;99.90;;;;;;5113229;28;19907;-74
2022/03/08 03:13:20;;;;;;;;;;;0.00;99.90;;;;;;5094873;28;19916;-73
2022/03/08 03:15:46;;;;;;;;;;;0.00;99.90;;;;;;5112957;28;19912;-72
2022/03/08 03:18:11;;;;;;;;;;;0.00;99.90;;;;;;5113314;28;19912;-73
2022/03/08 03:20:37;;;;;;;;;;;0.00;99.90;;;;;;5094793;28;19916;-74
2022/03/08 03:23:03;;;;;;;;;;;0.00;99.90;;;;;;5113456;28;19919;-73
2022/03/08 03:25:28;;;;;;;;;;;0.00;99.90;;;;;;5112437;28;19955;-73
2022/03/08 03:27:54;;;;;;;;;;;0.00;99.90;;;;;;5113296;28;20006;-73
2022/03/08 03:30:20;;;;;;;;;;;0.00;99.90;;;;;;5112895;28;19951;-72
2022/03/08 03:32:46;;;;;;;;;;;0.10;99.90;;;;;;5094680;28;19913;-72
2022/03/08 03:35:12;;;;;;;;;;;0.10;99.90;;;;;;5112608;28;20328;-72
2022/03/08 03:37:37;;;;;;;;;;;0.00;99.90;;;;;;5112499;28;19993;-73
2022/03/08 03:40:04;;;;;;;;;;;0.00;99.90;;;;;;5112758;28;20367;-73
2022/03/08 03:42:30;;;;;;;;;;;0.00;99.90;;;;;;5112846;28;19908;-73
2022/03/08 03:44:55;;;;;;;;;;;0.00;99.90;;;;;;5094275;28;20303;-74
2022/03/08 03:47:21;;;;;;;;;;;0.00;99.90;;;;;;5094413;28;19908;-73
2022/03/08 03:49:47;;;;;;;;;;;0.00;99.90;;;;;;5112606;28;20443;-74
2022/03/08 03:52:12;;;;;;;;;;;0.00;99.90;;;;;;5094036;28;19939;-73
2022/03/08 03:54:38;;;;;;;;;;;0.00;99.90;;;;;;5112316;28;20296;-74
2022/03/08 03:57:07;;;;;;;;;;;0.00;99.90;;;;;;5112674;28;19934;-73
2022/03/08 03:59:32;;;;;;;;;;;0.00;99.90;;;;;;5100167;27;19923;-72
2022/03/08 04:01:58;;;;;;;;;;;0.00;99.90;;;;;;5112439;28;19920;-73
2022/03/08 04:04:24;;;;;;;;;;;-0.10;99.90;;;;;;5112546;28;19912;-74
2022/03/08 04:06:49;;;;;;;;;;;-0.10;99.90;;;;;;5093738;28;20248;-74
2022/03/08 04:09:15;;;;;;;;;;;-0.10;99.90;;;;;;5094224;28;19959;-74
2022/03/08 04:11:40;;;;;;;;;;;-0.10;99.90;;;;;;5112230;28;20006;-74
2022/03/08 04:14:06;;;;;;;;;;;-0.10;99.90;;;;;;5112383;28;19918;-73
2022/03/08 04:16:32;;;;;;;;;;;-0.10;99.90;;;;;;5111833;28;19950;-73
2022/03/08 04:18:57;;;;;;;;;;;-0.10;99.90;;;;;;5094024;28;20000;-73
2022/03/08 04:21:23;;;;;;;;;;;-0.10;99.90;;;;;;5127784;27;20305;-72
2022/03/08 04:23:48;;;;;;;;;;;-0.10;99.90;;;;;;5132379;27;20240;-73
2022/03/08 04:26:14;;;;;;;;;;;-1.40;99.90;;;;;;5132488;27;20385;-75
2022/03/08 04:28:40;;;;;;;;;;;0.00;99.90;;;;;;5132181;27;19987;-74
2022/03/08 04:31:05;;;;;;;;;;;0.00;99.90;;;;;;5118666;27;20363;-73
2022/03/08 04:33:31;;;;;;;;;;;0.00;99.90;;;;;;5093377;28;20006;-73
2022/03/08 04:35:57;;;;;;;;;;;0.00;99.90;;;;;;5111366;28;19908;-73
2022/03/08 04:38:22;;;;;;;;;;;0.00;99.90;;;;;;5093119;28;19966;-73
2022/03/08 04:40:48;;;;;;;;;;;0.00;99.90;;;;;;5104318;27;19933;-74
2022/03/08 04:43:14;;;;;;;;;;;0.10;99.90;;;;;;5113349;27;20017;-74
2022/03/08 04:45:39;;;;;;;;;;;0.10;99.90;;;;;;5131993;27;19911;-73
2022/03/08 04:48:05;;;;;;;;;;;0.10;99.90;;;;;;5113542;27;19912;-73
2022/03/08 04:50:31;;;;;;;;;;;0.10;99.90;;;;;;5122508;27;20279;-73
2022/03/08 04:52:56;;;;;;;;;;;0.10;99.90;;;;;;5111024;28;19926;-73
2022/03/08 04:55:22;;;;;;;;;;;0.10;99.90;;;;;;5092819;28;19945;-74
2022/03/08 04:57:48;;;;;;;;;;;0.10;99.90;;;;;;5093128;28;19918;-74
2022/03/08 05:00:14;;;;;;;;;;;0.20;99.90;;;;;;5117291;27;20320;-74
2022/03/08 05:02:43;;;;;;;;;;;0.20;99.90;;;;;;5132076;27;19912;-74
2022/03/08 05:05:10;;;;;;;;;;;0.20;99.90;;;;;;5107735;28;20363;-73
2022/03/08 05:07:36;;;;;;;;;;;0.20;99.90;;;;;;5092579;28;20381;-72
2022/03/08 05:10:04;;;;;;;;;;;0.20;99.90;;;;;;5110928;28;20014;-73
2022/03/08 05:12:30;;;;;;;;;;;0.20;99.90;;;;;;5111465;28;20371;-73
2022/03/08 05:14:56;;;;;;;;;;;0.20;99.90;;;;;;5092844;28;19973;-73
2022/03/08 05:17:22;;;;;;;;;;;0.20;99.90;;;;;;5111375;28;20252;-74
2022/03/08 05:19:47;;;;;;;;;;;0.20;99.90;;;;;;5110927;28;19916;-73
2022/03/08 05:22:13;;;;;;;;;;;0.20;99.90;;;;;;5111469;28;19919;-73
2022/03/08 05:24:39;;;;;;;;;;;0.20;99.90;;;;;;5092696;28;20019;-72
2022/03/08 05:27:05;;;;;;;;;;;0.30;99.90;;;;;;5111358;28;19938;-74
2022/03/08 05:29:31;;;;;;;;;;;0.40;99.90;;;;;;5110844;28;20407;-74
2022/03/08 05:31:57;;;;;;;;;;;0.50;99.90;;;;;;5092587;28;19995;-73
2022/03/08 05:34:22;;;;;;;;;;;0.50;99.90;;;;;;5111204;28;20339;-73
2022/03/08 05:36:48;;;;;;;;;;;0.60;99.90;;;;;;5092489;28;19912;-73
2022/03/08 05:39:14;;;;;;;;;;;0.70;99.90;;;;;;5092429;28;19918;-73
2022/03/08 05:41:39;;;;;;;;;;;0.70;99.90;;;;;;5110795;28;19962;-72
2022/03/08 05:44:05;;;;;;;;;;;0.80;99.90;;;;;;5110831;28;19916;-73
2022/03/08 05:46:30;;;;;;;;;;;0.80;99.90;;;;;;5092643;28;20503;-73
2022/03/08 05:48:56;;;;;;;;;;;0.80;99.90;;;;;;5092286;28;19916;-74
2022/03/08 05:51:22;;;;;;;;;;;0.80;99.90;;;;;;5092281;28;20440;-74
2022/03/08 05:53:47;;;;;;;;;;;0.70;99.90;;;;;;5111106;28;19919;-73
2022/03/08 05:56:13;;;;;;;;;;;0.70;99.90;;;;;;5111031;28;19907;-72
2022/03/08 05:58:38;;;;;;;;;;;0.70;99.90;;;;;;5110667;28;19912;-74
2022/03/08 06:01:04;;;;;;;;;;;0.70;99.90;;;;;;5118409;28;19911;-74
2022/03/08 06:03:30;;;;;;;;;;;0.70;99.90;;;;;;5114449;28;20011;-73
2022/03/08 06:05:55;;;;;;;;;;;0.60;99.90;;;;;;5096141;28;19981;-72
2022/03/08 06:08:21;;;;;;;;;;;0.60;99.90;;;;;;5114462;28;20363;-74
2022/03/08 06:10:47;;;;;;;;;;;0.60;99.90;;;;;;5114659;28;20358;-74
2022/03/08 06:13:12;;;;;;;;;;;0.60;99.90;;;;;;5114859;28;19916;-73
2022/03/08 06:15:38;;;;;;;;;;;0.60;99.90;;;;;;5114213;28;19918;-73
2022/03/08 06:18:03;;;;;;;;;;;0.70;99.90;;;;;;5114827;28;19911;-72
2022/03/08 06:20:29;;;;;;;;;;;0.70;99.90;;;;;;5113842;28;19912;-72
2022/03/08 06:22:55;;;;;;;;;;;0.70;99.90;;;;;;5096037;28;20267;-74
2022/03/08 06:25:23;;;;;;;;;;;0.80;99.90;;;;;;5114255;28;20264;-73
2022/03/08 06:27:49;;;;;;;;;;;0.80;99.90;;;;;;5114688;28;19962;-73
2022/03/08 06:30:15;;;;;;;;;;;0.80;99.90;;;;;;5120090;27;20319;-74
2022/03/08 06:32:40;;;;;;;;;;;0.70;99.90;;;;;;5134954;27;20052;-73
2022/03/08 06:35:06;;;;;;;;;;;0.80;99.90;;;;;;5115900;27;19911;-73
2022/03/08 06:37:32;;;;;;;;;;;0.80;99.90;;;;;;5134991;27;19994;-73
2022/03/08 06:39:57;;;;;;;;;;;0.80;99.90;;;;;;5130214;27;20116;-74
2022/03/08 06:42:23;;;;;;;;;;;0.80;99.90;;;;;;5095901;28;20348;-76
2022/03/08 06:44:49;;;;;;;;;;;0.80;99.90;;;;;;5113664;28;19912;-73
2022/03/08 06:47:14;;;;;;;;;;;0.90;99.90;;;;;;5095751;28;19920;-74
2022/03/08 06:49:41;;;;;;;;;;;0.90;99.90;;;;;;5114865;27;19916;-73
2022/03/08 06:52:07;;;;;;;;;;;0.80;99.90;;;;;;5150034;27;20286;-72
2022/03/08 06:54:33;;;;;;;;;;;0.80;99.90;;;;;;5134074;27;19923;-72
2022/03/08 06:56:59;;;;;;;;;;;0.80;99.90;;;;;;5095240;28;19915;-73
2022/03/08 06:59:25;;;;;;;;;;;0.80;99.90;;;;;;5118729;27;19968;-73
2022/03/08 07:01:51;;;;;;;;;;;0.80;99.90;;;;;;5132501;27;19918;-74
2022/03/08 07:04:17;;;;;;;;;;;0.80;99.90;;;;;;5134247;27;19912;-73
2022/03/08 07:06:43;;;;;;;;;;;0.80;99.90;;;;;;5115448;27;19968;-74
2022/03/08 07:09:08;;;;;;;;;;;0.80;99.90;;;;;;5149775;27;20363;-74
2022/03/08 07:11:36;;;;;;;;;;;0.70;99.90;;;;;;5133562;27;19908;-74
2022/03/08 07:14:03;;;;;;;;;;;0.70;99.90;;;;;;5115121;27;20410;-75
2022/03/08 07:16:29;;;;;;;;;;;0.70;99.90;;;;;;5116858;27;19922;-74
2022/03/08 07:18:55;;;;;;;;;;;0.70;99.90;;;;;;5095044;28;20006;-74
2022/03/08 07:21:20;;;;;;;;;;;0.70;99.90;;;;;;5128592;27;20270;-74
2022/03/08 07:23:46;;;;;;;;;;;0.70;99.90;;;;;;5133573;27;19920;-74
2022/03/08 07:26:11;;;;;;;;;;;0.70;99.90;;;;;;5114929;27;20212;-72
2022/03/08 07:28:37;;;;;;;;;;;0.70;99.90;;;;;;5149920;27;19919;-72
2022/03/08 07:31:03;;;;;;;;;;;0.70;99.90;;;;;;5139202;27;20373;-72
2022/03/08 07:33:29;;;;;;;;;;;0.70;99.90;;;;;;5115132;27;19915;-74
2022/03/08 07:35:55;;;;;;;;;;;0.70;99.90;;;;;;5114655;27;19908;-74
2022/03/08 07:38:20;;;;;;;;;;;0.70;99.90;;;;;;5115283;27;20238;-74
2022/03/08 07:40:46;;;;;;;;;;;0.60;99.90;;;;;;5133077;27;19907;-75
2022/03/08 07:43:11;;;;;;;;;;;0.60;99.90;;;;;;5149551;27;20455;-74
2022/03/08 07:45:37;;;;;;;;;;;0.60;99.90;;;;;;5123828;27;19916;-74
2022/03/08 07:48:05;;;;;;;;;;;0.60;99.90;;;;;;5113244;28;20263;-73
2022/03/08 07:50:31;;;;;;;;;;;0.60;99.90;;;;;;5094172;28;19923;-74
2022/03/08 07:52:59;;;;;;;;;;;0.70;99.90;;;;;;5112856;28;19919;-75
2022/03/08 07:55:26;;;;;;;;;;;0.70;99.90;;;;;;5094500;28;19999;-73
2022/03/08 07:57:52;;;;;;;;;;;0.80;99.90;;;;;;5094403;28;19916;-74
2022/03/08 08:00:18;;;;;;;;;;;0.80;99.90;;;;;;5099803;28;19911;-73
2022/03/08 08:02:43;;;;;;;;;;;0.80;99.90;;;;;;5112453;28;19912;-73
2022/03/08 08:05:09;;;;;;;;;;;0.80;99.90;;;;;;5112017;28;20066;-74
2022/03/08 08:07:34;;;;;;;;;;;0.90;99.90;;;;;;5112744;28;19912;-73
2022/03/08 08:10:00;;;;;;;;;;;1.20;99.90;;;;;;5112065;28;20351;-74
2022/03/08 08:12:26;;;;;;;;;;;1.40;99.90;;;;;;5112282;28;19912;-72
2022/03/08 08:14:52;;;;;;;;;;;1.80;99.90;;;;;;5112156;28;20330;-75
2022/03/08 08:17:18;;;;;;;;;;;2.30;99.90;;;;;;5112414;28;19916;-75
2022/03/08 08:19:43;;;;;;;;;;;2.50;99.90;;;;;;5093766;28;20049;-74
2022/03/08 08:22:09;;;;;;;;;;;3.00;99.90;;;;;;5112068;28;20381;-72
2022/03/08 08:24:35;;;;;;;;;;;3.40;99.90;;;;;;5111299;28;19912;-73
2022/03/08 08:27:01;;;;;;;;;;;3.70;99.90;;;;;;5111908;28;20359;-73
2022/03/08 08:29:26;;;;;;;;;;;3.70;99.90;;;;;;5094027;28;19999;-72
2022/03/08 08:31:52;;;;;;;;;;;3.50;99.90;;;;;;5093200;28;20169;-74
2022/03/08 08:34:18;;;;;;;;;;;3.20;99.90;;;;;;5111967;28;19912;-73
2022/03/08 08:36:46;;;;;;;;;;;3.00;99.90;;;;;;5111577;28;19922;-73
2022/03/08 08:39:14;;;;;;;;;;;3.10;99.90;;;;;;5093812;28;19912;-71
2022/03/08 08:41:43;;;;;;;;;;;3.40;99.90;;;;;;5093064;28;20042;-73
2022/03/08 08:44:09;;;;;;;;;;;3.60;99.90;;;;;;5093451;28;19918;-73
2022/03/08 08:46:35;;;;;;;;;;;3.50;99.90;;;;;;5093030;28;19911;-73
2022/03/08 08:49:00;;;;;;;;;;;3.30;99.90;;;;;;5111737;28;19916;-73
2022/03/08 08:51:26;;;;;;;;;;;3.10;99.90;;;;;;5110991;28;19951;-74
2022/03/08 08:53:52;;;;;;;;;;;2.70;99.90;;;;;;5093284;28;19923;-74
2022/03/08 08:56:21;;;;;;;;;;;2.30;99.90;;;;;;5097196;27;19913;-74
2022/03/08 08:58:47;;;;;;;;;;;0.90;99.90;;;;;;5132178;27;19994;-74
2022/03/08 09:01:12;;;;;;;;;;;1.30;99.90;;;;;;5111211;28;20517;-73
2022/03/08 09:03:38;;;;;;;;;;;1.00;99.90;;;;;;5111493;28;19911;-73
2022/03/08 09:06:04;;;;;;;;;;;0.70;99.90;;;;;;5111382;28;20385;-73
2022/03/08 09:08:30;;;;;;;;;;;0.50;99.90;;;;;;5093042;28;19966;-73
2022/03/08 09:10:56;;;;;;;;;;;0.40;99.90;;;;;;5110986;28;19912;-74
2022/03/08 09:13:22;;;;;;;;;;;0.40;99.90;;;;;;5110994;28;20397;-73
2022/03/08 09:15:48;;;;;;;;;;;0.50;99.90;;;;;;5103828;28;19907;-72
2022/03/08 09:18:14;;;;;;;;;;;0.60;99.90;;;;;;5132394;28;19922;-72
2022/03/08 09:20:40;;;;;;;;;;;0.80;99.90;;;;;;5131578;28;19912;-74
2022/03/08 09:23:06;;;;;;;;;;;0.90;99.90;;;;;;5131837;28;20019;-73
2022/03/08 09:25:33;;;;;;;;;;;1.20;99.90;;;;;;5122908;28;20323;-73
2022/03/08 09:27:59;;;;;;;;;;;1.60;99.90;;;;;;5111601;28;20280;-73
2022/03/08 09:30:25;;;;;;;;;;;2.10;99.90;;;;;;5111204;28;20011;-75
2022/03/08 09:32:51;;;;;;;;;;;2.50;99.90;;;;;;5093164;28;20374;-74
2022/03/08 09:35:16;;;;;;;;;;;3.20;99.90;;;;;;5111714;28;19920;-75
2022/03/08 09:37:42;;;;;;;;;;;3.90;99.90;;;;;;5097248;28;19912;-72
2022/03/08 09:40:10;;;;;;;;;;;4.30;99.90;;;;;;5115276;28;20018;-75
2022/03/08 09:42:36;;;;;;;;;;;4.60;99.90;;;;;;5096758;28;19958;-74
2022/03/08 09:45:02;;;;;;;;;;;4.80;99.90;;;;;;5115326;28;19966;-75
2022/03/08 09:47:28;;;;;;;;;;;4.70;99.90;;;;;;5097312;28;20324;-74
2022/03/08 09:49:54;;;;;;;;;;;4.80;99.90;;;;;;5096636;28;20332;-73
2022/03/08 09:52:20;;;;;;;;;;;4.70;99.90;;;;;;5096081;28;19919;-74
2022/03/08 09:54:46;;;;;;;;;;;4.50;99.90;;;;;;5096536;28;19912;-74
2022/03/08 09:57:13;;;;;;;;;;;4.50;99.90;;;;;;5115188;28;19912;-75
2022/03/08 09:59:39;;;;;;;;;;;4.60;99.90;;;;;;5102037;27;20367;-73
2022/03/08 10:02:04;;;;;;;;;;;4.90;99.90;;;;;;5114547;28;19938;-74
2022/03/08 10:04:30;;;;;;;;;;;5.10;99.90;;;;;;5096044;28;20390;-75
2022/03/08 10:06:56;;;;;;;;;;;5.10;99.90;;;;;;5096366;28;20314;-74
2022/03/08 10:09:22;;;;;;;;;;;5.10;99.90;;;;;;5096276;28;20371;-73
2022/03/08 10:11:54;;;;;;;;;;;5.20;99.90;;;;;;5114636;28;19977;-76
2022/03/08 10:14:27;;;;;;;;;;;5.20;99.90;;;;;;5114582;28;19924;-75
2022/03/08 10:16:53;;;;;;;;;;;5.20;99.90;;;;;;5096336;28;19962;-76
2022/03/08 10:19:19;;;;;;;;;;;5.10;99.90;;;;;;5096106;28;19977;-75
2022/03/08 10:21:47;;;;;;;;;;;5.20;99.90;;;;;;5113980;28;20010;-74
2022/03/08 10:24:13;;;;;;;;;;;5.50;99.90;;;;;;5095765;28;19953;-74
2022/03/08 10:26:57;;;;;;;;;;;5.50;99.90;;;;;;5114247;28;19915;-73
2022/03/08 10:29:37;;;;;;;;;;;5.60;99.90;;;;;;5114499;28;19984;-73
2022/03/08 10:32:11;;;;;;;;;;;5.30;99.90;;;;;;5095853;28;19965;-74
2022/03/08 10:34:37;;;;;;;;;;;4.80;99.90;;;;;;5114934;27;19919;-75
2022/03/08 10:37:03;;;;;;;;;;;4.20;99.90;;;;;;5134853;27;19920;-74
2022/03/08 10:39:28;;;;;;;;;;;3.80;99.90;;;;;;5116457;27;19965;-74
2022/03/08 10:41:56;;;;;;;;;;;3.30;99.90;;;;;;5150493;27;19918;-74
2022/03/08 10:44:39;;;;;;;;;;;3.00;99.90;;;;;;5134892;27;19912;-73
2022/03/08 10:47:09;;;;;;;;;;;3.00;99.90;;;;;;5094663;28;19934;-73
2022/03/08 10:49:46;;;;;;;;;;;3.50;99.90;;;;;;5114920;27;19965;-74
2022/03/08 10:52:11;;;;;;;;;;;3.80;99.90;;;;;;5134449;27;19927;-73
2022/03/08 10:54:37;;;;;;;;;;;3.80;99.90;;;;;;5133195;27;19922;-75
2022/03/08 10:57:03;;;;;;;;;;;3.90;99.90;;;;;;5095583;28;19916;-74
2022/03/08 10:59:29;;;;;;;;;;;4.10;99.90;;;;;;5119813;27;19911;-75
2022/03/08 11:01:55;;;;;;;;;;;4.00;99.90;;;;;;5115511;27;20408;-74
2022/03/08 11:04:21;;;;;;;;;;;4.00;99.90;;;;;;5134332;27;19922;-74
2022/03/08 11:06:50;;;;;;;;;;;4.20;99.90;;;;;;5134400;27;19911;-75
2022/03/08 11:09:16;;;;;;;;;;;4.30;99.90;;;;;;5150130;27;19927;-74
2022/03/08 11:11:43;;;;;;;;;;;4.30;99.90;;;;;;5115449;27;20026;-74
2022/03/08 11:14:09;;;;;;;;;;;4.80;99.90;;;;;;5113533;28;19912;-74
2022/03/08 11:16:35;;;;;;;;;;;5.20;99.90;;;;;;5113217;28;19920;-74
2022/03/08 11:19:01;;;;;;;;;;;5.80;99.90;;;;;;5095335;28;19959;-74
2022/03/08 11:21:27;;;;;;;;;;;6.20;99.90;;;;;;5113338;28;19957;-75
2022/03/08 11:23:54;;;;;;;;;;;6.10;99.90;;;;;;5094920;28;20346;-75
2022/03/08 11:26:20;;;;;;;;;;;5.40;99.90;;;;;;5113231;28;19939;-75
2022/03/08 11:28:47;;;;;;;;;;;4.80;99.90;;;;;;5113509;28;20426;-75
2022/03/08 11:31:17;;;;;;;;;;;4.20;99.90;;;;;;5113000;28;19911;-74
2022/03/08 11:34:01;;;;;;;;;;;3.90;99.90;;;;;;5112833;28;20343;-75
2022/03/08 11:36:26;;;;;;;;;;;3.70;99.90;;;;;;5129539;27;19919;-75
2022/03/08 11:39:11;;;;;;;;;;;3.90;99.90;;;;;;5133704;27;19911;-74
2022/03/08 11:41:37;;;;;;;;;;;4.00;99.90;;;;;;5096961;28;19922;-74
2022/03/08 11:44:03;;;;;;;;;;;3.80;99.90;;;;;;5112858;28;19930;-74
2022/03/08 11:46:29;;;;;;;;;;;3.50;99.90;;;;;;5094551;28;19915;-74
2022/03/08 11:48:56;;;;;;;;;;;3.40;99.90;;;;;;5094565;28;19923;-74
2022/03/08 11:51:22;;;;;;;;;;;3.40;99.90;;;;;;5094268;28;19920;-74
2022/03/08 11:53:58;;;;;;;;;;;3.30;99.90;;;;;;5094419;28;20371;-74
2022/03/08 11:56:24;;;;;;;;;;;3.20;99.90;;;;;;5128723;27;19919;-74
2022/03/08 11:58:50;;;;;;;;;;;3.00;99.90;;;;;;5114637;27;20279;-74
2022/03/08 12:01:22;;;;;;;;;;;2.90;99.90;;;;;;5131611;27;19919;-74
2022/03/08 12:03:52;;;;;;;;;;;2.70;99.90;;;;;;5132824;27;19979;-73
2022/03/08 12:06:28;;;;;;;;;;;2.50;99.90;;;;;;5132950;27;20270;-74
2022/03/08 12:08:59;;;;;;;;;;;2.40;99.90;;;;;;5133044;27;19919;-75
2022/03/08 12:11:29;;;;;;;;;;;2.40;99.90;;;;;;5135954;27;20015;-74
2022/03/08 12:13:59;;;;;;;;;;;2.50;99.90;;;;;;5132970;27;19915;-74
2022/03/08 12:16:26;;;;;;;;;;;2.50;99.90;;;;;;5132402;27;20366;-73
2022/03/08 12:18:55;;;;;;;;;;;2.40;99.90;;;;;;5132780;27;19998;-72
2022/03/08 12:21:21;;;;;;;;;;;2.30;99.90;;;;;;5116926;27;19918;-74
2022/03/08 12:23:51;;;;;;;;;;;2.20;99.90;;;;;;5093707;28;19915;-73
2022/03/08 12:26:24;;;;;;;;;;;2.00;99.90;;;;;;5111952;28;20295;-73
2022/03/08 12:29:10;;;;;;;;;;;1.80;99.90;;;;;;5093864;28;19931;-73
2022/03/08 12:31:54;;;;;;;;;;;1.60;99.90;;;;;;5111062;27;20366;-74
2022/03/08 12:34:42;;;;;;;;;;;1.60;99.90;;;;;;5114197;27;19916;-75
2022/03/08 12:37:08;;;;;;;;;;;1.60;99.90;;;;;;5111972;28;20403;-74
2022/03/08 12:39:50;;;;;;;;;;;1.50;99.90;;;;;;5112688;27;20018;-74
2022/03/08 12:42:20;;;;;;;;;;;1.50;99.90;;;;;;5132275;27;19954;-74
2022/03/08 12:45:18;;;;;;;;;;;1.50;99.90;;;;;;5130269;27;19926;-75
2022/03/08 12:47:54;;;;;;;;;;;1.50;99.90;;;;;;5055688;28;20283;-74
2022/03/08 12:50:21;;;;;;;;;;;1.40;99.90;;;;;;5093438;28;19926;-74
2022/03/08 12:52:49;;;;;;;;;;;1.40;99.90;;;;;;5093205;28;20010;-75
2022/03/08 12:55:19;;;;;;;;;;;1.40;99.90;;;;;;5111342;28;20290;-74
2022/03/08 12:57:46;;;;;;;;;;;1.50;99.90;;;;;;5111758;28;19914;-75
2022/03/08 13:00:23;;;;;;;;;;;1.50;99.90;;;;;;5117911;27;20300;-74
2022/03/08 13:02:48;;;;;;;;;;;1.50;99.90;;;;;;5111418;28;19966;-74
2022/03/08 13:05:14;;;;;;;;;;;1.60;99.90;;;;;;5111509;28;20379;-74
2022/03/08 13:07:49;;;;;;;;;;;1.60;99.90;;;;;;5111521;28;19907;-74
2022/03/08 13:10:14;;;;;;;;;;;1.60;99.90;;;;;;5092493;28;20311;-75
2022/03/08 13:12:40;;;;;;;;;;;1.60;99.90;;;;;;5093100;28;19915;-73
2022/03/08 13:15:06;;;;;;;;;;;1.60;99.90;;;;;;5092862;28;20141;-74
2022/03/08 13:17:32;;;;;;;;;;;1.50;99.90;;;;;;5111635;28;19908;-73
2022/03/08 13:19:57;;;;;;;;;;;1.40;99.90;;;;;;5111712;28;19924;-74
2022/03/08 13:22:23;;;;;;;;;;;1.40;99.90;;;;;;5111743;28;20037;-73
2022/03/08 13:25:10;;;;;;;;;;;1.40;99.90;;;;;;5110707;28;20340;-72
2022/03/08 13:27:48;;;;;;;;;;;1.40;99.90;;;;;;5092953;28;19908;-74
2022/03/08 13:30:24;;;;;;;;;;;1.50;99.90;;;;;;5117582;28;20072;-74
2022/03/08 13:33:09;;;;;;;;;;;1.60;99.90;;;;;;5131882;28;19961;-75
2022/03/08 13:35:39;;;;;;;;;;;1.60;99.90;;;;;;5131455;28;20320;-74
2022/03/08 13:38:05;;;;;;;;;;;1.50;99.90;;;;;;5147764;27;19915;-74
2022/03/08 13:40:32;;;;;;;;;;;1.30;99.90;;;;;;5142446;27;19937;-74
2022/03/08 13:42:59;;;;;;;;;;;1.20;99.90;;;;;;5131464;28;19918;-74
2022/03/08 13:45:25;;;;;;;;;;;1.10;99.90;;;;;;5112918;28;19912;-74
2022/03/08 13:47:55;;;;;;;;;;;1.10;99.90;;;;;;5131501;28;19960;-74
2022/03/08 13:50:24;;;;;;;;;;;1.10;99.90;;;;;;5124216;28;19920;-73
2022/03/08 13:52:50;;;;;;;;;;;1.10;99.90;;;;;;5092308;28;20379;-72
2022/03/08 13:55:15;;;;;;;;;;;1.00;99.90;;;;;;5110586;28;19923;-73
2022/03/08 13:57:54;;;;;;;;;;;1.00;99.90;;;;;;5110766;28;19908;-74
2022/03/08 14:00:20;;;;;;;;;;;0.90;99.90;;;;;;5098659;28;20300;-75
2022/03/08 14:02:46;;;;;;;;;;;0.90;99.90;;;;;;5092932;28;19908;-73
2022/03/08 14:05:11;;;;;;;;;;;0.90;99.90;;;;;;5092598;28;19955;-74
2022/03/08 14:07:37;;;;;;;;;;;0.90;99.90;;;;;;5110801;28;19908;-75
2022/03/08 14:10:03;;;;;;;;;;;0.90;99.90;;;;;;5092548;28;19962;-73
2022/03/08 14:12:42;;;;;;;;;;;0.90;99.90;;;;;;5092331;28;19912;-74
2022/03/08 14:15:09;;;;;;;;;;;1.00;99.90;;;;;;5092615;28;19916;-73
2022/03/08 14:17:34;;;;;;;;;;;0.90;99.90;;;;;;5110692;28;20066;-74
2022/03/08 14:20:12;;;;;;;;;;;0.90;99.90;;;;;;5092439;28;20010;-75
2022/03/08 14:22:56;;;;;;;;;;;0.90;99.90;;;;;;5113619;28;20307;-74
2022/03/08 14:25:22;;;;;;;;;;;0.90;99.90;;;;;;5095765;28;20335;-75
2022/03/08 14:27:49;;;;;;;;;;;0.80;99.90;;;;;;5096014;28;19907;-75